sensor_id;sensor_type;location;lat;lon;timestamp;temperature;humidity
10566;DHT22;5331;48.148;16.326;2024-03-02T00:09:09;5.70;1.00
10566;DHT22;5331;48.148;16.326;2024-03-02T00:11:37;5.60;1.00
10566;DHT22;5331;48.148;16.326;2024-03-02T00:14:04;5.60;1.00
10566;DHT22;5331;48.148;16.326;2024-03-02T00:16:31;5.40;1.00
10566;DHT22;5331;48.148;16.326;2024-03-02T00:19:01;5.40;1.00
10566;DHT22;5331;48.148;16.326;2024-03-02T00:21:28;5.40;1.00
10566;DHT22;5331;48.148;16.326;2024-03-02T00:23:55;5.40;1.00
10566;DHT22;5331;48.148;16.326;2024-03-02T00:26:23;5.30;1.00
10566;DHT22;5331;48.148;16.326;2024-03-02T00:44:22;5.30;1.00
10566;DHT22;5331;48.148;16.326;2024-03-02T00:46:50;5.10;1.00
10566;DHT22;5331;48.148;16.326;2024-03-02T00:49:18;5.10;1.00
10566;DHT22;5331;48.148;16.326;2024-03-02T00:51:48;5.10;1.00
10566;DHT22;5331;48.148;16.326;2024-03-02T00:54:15;5.00;1.00
10566;DHT22;5331;48.148;16.326;2024-03-02T00:56:41;5.00;1.00
10566;DHT22;5331;48.148;16.326;2024-03-02T00:59:10;5.00;1.00
10566;DHT22;5331;48.148;16.326;2024-03-02T01:31:32;5.10;1.00
10566;DHT22;5331;48.148;16.326;2024-03-02T01:33:58;4.90;1.00
10566;DHT22;5331;48.148;16.326;2024-03-02T01:36:24;4.80;1.00
10566;DHT22;5331;48.148;16.326;2024-03-02T01:38:50;4.80;1.00
10566;DHT22;5331;48.148;16.326;2024-03-02T01:41:16;4.80;1.00
10566;DHT22;5331;48.148;16.326;2024-03-02T01:43:43;4.80;1.00
10566;DHT22;5331;48.148;16.326;2024-03-02T01:46:09;4.70;1.00
10566;DHT22;5331;48.148;16.326;2024-03-02T02:06:01;4.70;1.00
10566;DHT22;5331;48.148;16.326;2024-03-02T02:08:27;4.60;1.00
10566;DHT22;5331;48.148;16.326;2024-03-02T02:10:54;4.60;1.00
10566;DHT22;5331;48.148;16.326;2024-03-02T02:13:20;4.50;1.00
10566;DHT22;5331;48.148;16.326;2024-03-02T02:15:46;4.50;1.00
10566;DHT22;5331;48.148;16.326;2024-03-02T02:18:12;4.50;1.00
10566;DHT22;5331;48.148;16.326;2024-03-02T02:20:39;4.50;1.00
10566;DHT22;5331;48.148;16.326;2024-03-02T02:47:03;4.90;1.00
10566;DHT22;5331;48.148;16.326;2024-03-02T02:49:29;4.80;1.00
10566;DHT22;5331;48.148;16.326;2024-03-02T02:51:55;4.80;1.00
10566;DHT22;5331;48.148;16.326;2024-03-02T02:54:21;4.70;1.00
10566;DHT22;5331;48.148;16.326;2024-03-02T02:56:47;4.70;1.00
10566;DHT22;5331;48.148;16.326;2024-03-02T02:59:14;4.60;1.00
10566;DHT22;5331;48.148;16.326;2024-03-02T03:01:40;4.60;1.00
10566;DHT22;5331;48.148;16.326;2024-03-02T03:21:23;5.10;1.00
10566;DHT22;5331;48.148;16.326;2024-03-02T03:23:49;4.90;1.00
10566;DHT22;5331;48.148;16.326;2024-03-02T03:26:15;4.90;1.00
10566;DHT22;5331;48.148;16.326;2024-03-02T03:28:41;4.90;1.00
10566;DHT22;5331;48.148;16.326;2024-03-02T03:31:07;4.90;1.00
10566;DHT22;5331;48.148;16.326;2024-03-02T03:33:34;4.90;1.00
10566;DHT22;5331;48.148;16.326;2024-03-02T03:36:00;4.90;1.00
10566;DHT22;5331;48.148;16.326;2024-03-02T03:38:28;4.90;1.00
10566;DHT22;5331;48.148;16.326;2024-03-02T03:56:23;5.20;1.00
10566;DHT22;5331;48.148;16.326;2024-03-02T03:58:49;5.10;1.00
10566;DHT22;5331;48.148;16.326;2024-03-02T04:01:16;5.10;1.00
10566;DHT22;5331;48.148;16.326;2024-03-02T04:03:42;5.10;1.00
10566;DHT22;5331;48.148;16.326;2024-03-02T04:06:08;5.10;1.00
10566;DHT22;5331;48.148;16.326;2024-03-02T04:08:34;5.10;1.00
10566;DHT22;5331;48.148;16.326;2024-03-02T04:11:00;5.10;1.00
10566;DHT22;5331;48.148;16.326;2024-03-02T04:28:56;5.40;1.00
10566;DHT22;5331;48.148;16.326;2024-03-02T04:31:22;5.20;1.00
10566;DHT22;5331;48.148;16.326;2024-03-02T04:33:48;5.20;1.00
10566;DHT22;5331;48.148;16.326;2024-03-02T04:36:15;5.10;1.00
10566;DHT22;5331;48.148;16.326;2024-03-02T04:38:41;5.10;1.00
10566;DHT22;5331;48.148;16.326;2024-03-02T04:41:07;5.10;1.00
10566;DHT22;5331;48.148;16.326;2024-03-02T04:43:34;5.10;1.00
10566;DHT22;5331;48.148;16.326;2024-03-02T05:01:28;5.30;1.00
10566;DHT22;5331;48.148;16.326;2024-03-02T05:03:54;5.20;1.00
10566;DHT22;5331;48.148;16.326;2024-03-02T05:06:20;5.10;1.00
10566;DHT22;5331;48.148;16.326;2024-03-02T05:08:46;5.10;1.00
10566;DHT22;5331;48.148;16.326;2024-03-02T05:11:13;5.00;1.00
10566;DHT22;5331;48.148;16.326;2024-03-02T05:14:04;4.90;1.00
10566;DHT22;5331;48.148;16.326;2024-03-02T05:33:51;4.80;1.00
10566;DHT22;5331;48.148;16.326;2024-03-02T05:36:18;4.70;1.00
10566;DHT22;5331;48.148;16.326;2024-03-02T05:38:44;4.70;1.00
10566;DHT22;5331;48.148;16.326;2024-03-02T05:41:10;4.70;1.00
10566;DHT22;5331;48.148;16.326;2024-03-02T05:43:37;4.60;1.00
10566;DHT22;5331;48.148;16.326;2024-03-02T05:46:03;4.70;1.00
10566;DHT22;5331;48.148;16.326;2024-03-02T05:48:29;4.70;1.00
10566;DHT22;5331;48.148;16.326;2024-03-02T06:04:06;5.00;1.00
10566;DHT22;5331;48.148;16.326;2024-03-02T06:06:32;4.90;1.00
10566;DHT22;5331;48.148;16.326;2024-03-02T06:08:59;4.80;1.00
10566;DHT22;5331;48.148;16.326;2024-03-02T06:11:25;4.80;1.00
10566;DHT22;5331;48.148;16.326;2024-03-02T06:13:51;4.90;1.00
10566;DHT22;5331;48.148;16.326;2024-03-02T06:16:18;4.90;1.00
10566;DHT22;5331;48.148;16.326;2024-03-02T06:18:44;4.90;1.00
10566;DHT22;5331;48.148;16.326;2024-03-02T06:38:44;5.50;1.00
10566;DHT22;5331;48.148;16.326;2024-03-02T06:41:10;5.40;1.00
10566;DHT22;5331;48.148;16.326;2024-03-02T06:43:36;5.40;1.00
10566;DHT22;5331;48.148;16.326;2024-03-02T06:46:03;5.30;1.00
10566;DHT22;5331;48.148;16.326;2024-03-02T06:48:30;5.30;1.00
10566;DHT22;5331;48.148;16.326;2024-03-02T06:50:56;5.30;1.00
10566;DHT22;5331;48.148;16.326;2024-03-02T06:53:23;5.40;1.00
10566;DHT22;5331;48.148;16.326;2024-03-02T07:13:38;5.40;1.00
10566;DHT22;5331;48.148;16.326;2024-03-02T07:16:05;5.40;1.00
10566;DHT22;5331;48.148;16.326;2024-03-02T07:18:53;5.30;1.00
10566;DHT22;5331;48.148;16.326;2024-03-02T07:21:21;5.30;1.00
10566;DHT22;5331;48.148;16.326;2024-03-02T07:23:48;5.30;1.00
10566;DHT22;5331;48.148;16.326;2024-03-02T07:26:14;5.20;1.00
10566;DHT22;5331;48.148;16.326;2024-03-02T07:28:41;5.20;1.00
10566;DHT22;5331;48.148;16.326;2024-03-02T07:45:03;5.60;1.00
10566;DHT22;5331;48.148;16.326;2024-03-02T07:47:30;5.50;1.00
10566;DHT22;5331;48.148;16.326;2024-03-02T07:52:22;5.50;1.00
10566;DHT22;5331;48.148;16.326;2024-03-02T07:54:48;5.50;1.00
10566;DHT22;5331;48.148;16.326;2024-03-02T07:57:15;5.50;1.00
10566;DHT22;5331;48.148;16.326;2024-03-02T07:59:41;5.30;1.00
10566;DHT22;5331;48.148;16.326;2024-03-02T08:16:29;5.90;1.00
10566;DHT22;5331;48.148;16.326;2024-03-02T08:18:55;5.90;1.00
10566;DHT22;5331;48.148;16.326;2024-03-02T08:21:23;5.90;1.00
10566;DHT22;5331;48.148;16.326;2024-03-02T08:23:50;5.90;1.00
10566;DHT22;5331;48.148;16.326;2024-03-02T08:26:16;5.80;1.00
10566;DHT22;5331;48.148;16.326;2024-03-02T08:28:42;5.90;1.00
10566;DHT22;5331;48.148;16.326;2024-03-02T08:31:09;5.90;1.00
10566;DHT22;5331;48.148;16.326;2024-03-02T08:49:03;6.50;1.00
10566;DHT22;5331;48.148;16.326;2024-03-02T08:51:29;6.40;1.00
10566;DHT22;5331;48.148;16.326;2024-03-02T08:53:56;6.40;1.00
10566;DHT22;5331;48.148;16.326;2024-03-02T08:56:22;6.50;1.00
10566;DHT22;5331;48.148;16.326;2024-03-02T08:58:49;6.50;1.00
10566;DHT22;5331;48.148;16.326;2024-03-02T09:01:15;6.60;1.00
10566;DHT22;5331;48.148;16.326;2024-03-02T09:03:42;6.60;1.00
10566;DHT22;5331;48.148;16.326;2024-03-02T09:23:25;7.60;1.00
10566;DHT22;5331;48.148;16.326;2024-03-02T09:25:52;7.60;1.00
10566;DHT22;5331;48.148;16.326;2024-03-02T09:28:18;7.50;1.00
10566;DHT22;5331;48.148;16.326;2024-03-02T09:30:44;7.50;1.00
10566;DHT22;5331;48.148;16.326;2024-03-02T09:33:10;7.50;1.00
10566;DHT22;5331;48.148;16.326;2024-03-02T09:35:36;7.60;1.00
10566;DHT22;5331;48.148;16.326;2024-03-02T09:38:03;7.60;1.00
10566;DHT22;5331;48.148;16.326;2024-03-02T09:55:56;8.40;1.00
10566;DHT22;5331;48.148;16.326;2024-03-02T09:58:22;8.40;1.00
10566;DHT22;5331;48.148;16.326;2024-03-02T10:00:49;8.30;1.00
10566;DHT22;5331;48.148;16.326;2024-03-02T10:03:21;8.30;1.00
10566;DHT22;5331;48.148;16.326;2024-03-02T10:05:48;8.30;1.00
10566;DHT22;5331;48.148;16.326;2024-03-02T10:08:14;8.30;1.00
10566;DHT22;5331;48.148;16.326;2024-03-02T10:10:41;8.40;1.00
10566;DHT22;5331;48.148;16.326;2024-03-02T10:28:46;8.90;1.00
10566;DHT22;5331;48.148;16.326;2024-03-02T10:31:12;8.90;1.00
10566;DHT22;5331;48.148;16.326;2024-03-02T10:33:39;8.80;1.00
10566;DHT22;5331;48.148;16.326;2024-03-02T10:36:06;8.90;1.00
10566;DHT22;5331;48.148;16.326;2024-03-02T10:38:33;8.90;1.00
10566;DHT22;5331;48.148;16.326;2024-03-02T10:41:00;8.80;1.00
10566;DHT22;5331;48.148;16.326;2024-03-02T10:43:29;8.80;1.00
10566;DHT22;5331;48.148;16.326;2024-03-02T11:01:25;9.50;1.00
10566;DHT22;5331;48.148;16.326;2024-03-02T11:03:52;9.40;1.00
10566;DHT22;5331;48.148;16.326;2024-03-02T11:06:19;9.50;1.00
10566;DHT22;5331;48.148;16.326;2024-03-02T11:08:47;9.50;1.00
10566;DHT22;5331;48.148;16.326;2024-03-02T11:11:15;9.60;1.00
10566;DHT22;5331;48.148;16.326;2024-03-02T11:13:51;9.80;1.00
10566;DHT22;5331;48.148;16.326;2024-03-02T11:16:27;9.90;1.00
10566;DHT22;5331;48.148;16.326;2024-03-02T11:34:30;10.60;1.00
10566;DHT22;5331;48.148;16.326;2024-03-02T11:36:57;10.50;1.00
10566;DHT22;5331;48.148;16.326;2024-03-02T11:39:24;10.50;1.00
10566;DHT22;5331;48.148;16.326;2024-03-02T11:41:51;10.60;1.00
10566;DHT22;5331;48.148;16.326;2024-03-02T11:44:17;10.60;1.00
10566;DHT22;5331;48.148;16.326;2024-03-02T11:46:45;10.80;1.00
10566;DHT22;5331;48.148;16.326;2024-03-02T11:49:14;10.80;1.00
10566;DHT22;5331;48.148;16.326;2024-03-02T12:07:06;11.10;1.00
10566;DHT22;5331;48.148;16.326;2024-03-02T12:09:32;11.10;1.00
10566;DHT22;5331;48.148;16.326;2024-03-02T12:12:03;11.00;1.00
10566;DHT22;5331;48.148;16.326;2024-03-02T12:14:30;11.00;1.00
10566;DHT22;5331;48.148;16.326;2024-03-02T12:16:57;11.10;1.00
10566;DHT22;5331;48.148;16.326;2024-03-02T12:19:24;11.20;1.00
10566;DHT22;5331;48.148;16.326;2024-03-02T12:21:51;11.30;1.00
10566;DHT22;5331;48.148;16.326;2024-03-02T12:24:18;11.40;1.00
10566;DHT22;5331;48.148;16.326;2024-03-02T12:42:13;12.30;1.00
10566;DHT22;5331;48.148;16.326;2024-03-02T12:44:39;12.30;1.00
10566;DHT22;5331;48.148;16.326;2024-03-02T12:47:10;12.30;1.00
10566;DHT22;5331;48.148;16.326;2024-03-02T12:49:39;12.30;1.00
10566;DHT22;5331;48.148;16.326;2024-03-02T12:52:06;12.10;1.00
10566;DHT22;5331;48.148;16.326;2024-03-02T12:54:32;12.00;1.00
10566;DHT22;5331;48.148;16.326;2024-03-02T12:56:59;12.20;1.00
10566;DHT22;5331;48.148;16.326;2024-03-02T13:14:52;12.90;1.00
10566;DHT22;5331;48.148;16.326;2024-03-02T13:17:19;12.90;1.00
10566;DHT22;5331;48.148;16.326;2024-03-02T13:19:52;12.80;1.00
10566;DHT22;5331;48.148;16.326;2024-03-02T13:22:19;12.80;1.00
10566;DHT22;5331;48.148;16.326;2024-03-02T13:24:45;12.60;1.00
10566;DHT22;5331;48.148;16.326;2024-03-02T13:27:11;12.40;1.00
10566;DHT22;5331;48.148;16.326;2024-03-02T13:29:38;12.50;1.00
10566;DHT22;5331;48.148;16.326;2024-03-02T13:49:57;12.80;1.00
10566;DHT22;5331;48.148;16.326;2024-03-02T13:52:23;12.80;1.00
10566;DHT22;5331;48.148;16.326;2024-03-02T13:54:51;12.70;1.00
10566;DHT22;5331;48.148;16.326;2024-03-02T13:57:18;12.70;1.00
10566;DHT22;5331;48.148;16.326;2024-03-02T13:59:45;12.70;1.00
10566;DHT22;5331;48.148;16.326;2024-03-02T14:02:12;12.60;1.00
10566;DHT22;5331;48.148;16.326;2024-03-02T14:04:38;12.50;1.00
10566;DHT22;5331;48.148;16.326;2024-03-02T14:22:33;12.90;1.00
10566;DHT22;5331;48.148;16.326;2024-03-02T14:25:00;12.70;1.00
10566;DHT22;5331;48.148;16.326;2024-03-02T14:27:26;12.50;1.00
10566;DHT22;5331;48.148;16.326;2024-03-02T14:29:52;12.30;1.00
10566;DHT22;5331;48.148;16.326;2024-03-02T14:32:18;12.30;1.00
10566;DHT22;5331;48.148;16.326;2024-03-02T14:34:44;12.20;1.00
10566;DHT22;5331;48.148;16.326;2024-03-02T14:37:12;12.10;1.00
10566;DHT22;5331;48.148;16.326;2024-03-02T14:55:05;12.10;1.00
10566;DHT22;5331;48.148;16.326;2024-03-02T14:57:33;12.00;1.00
10566;DHT22;5331;48.148;16.326;2024-03-02T14:59:59;11.90;1.00
10566;DHT22;5331;48.148;16.326;2024-03-02T15:02:25;11.80;1.00
10566;DHT22;5331;48.148;16.326;2024-03-02T15:04:54;11.70;1.00
10566;DHT22;5331;48.148;16.326;2024-03-02T15:07:20;11.60;1.00
10566;DHT22;5331;48.148;16.326;2024-03-02T15:09:46;11.70;1.00
10566;DHT22;5331;48.148;16.326;2024-03-02T15:12:13;11.70;1.00
10566;DHT22;5331;48.148;16.326;2024-03-02T15:30:07;11.70;1.00
10566;DHT22;5331;48.148;16.326;2024-03-02T15:32:33;11.60;1.00
10566;DHT22;5331;48.148;16.326;2024-03-02T15:35:00;11.60;1.00
10566;DHT22;5331;48.148;16.326;2024-03-02T15:37:26;11.60;1.00
10566;DHT22;5331;48.148;16.326;2024-03-02T15:39:52;11.50;1.00
10566;DHT22;5331;48.148;16.326;2024-03-02T15:42:18;11.50;1.00
10566;DHT22;5331;48.148;16.326;2024-03-02T15:44:44;11.50;1.00
10566;DHT22;5331;48.148;16.326;2024-03-02T16:00:15;11.60;1.00
10566;DHT22;5331;48.148;16.326;2024-03-02T16:02:41;11.50;1.00
10566;DHT22;5331;48.148;16.326;2024-03-02T16:05:08;11.40;1.00
10566;DHT22;5331;48.148;16.326;2024-03-02T16:07:34;11.40;1.00
10566;DHT22;5331;48.148;16.326;2024-03-02T16:10:00;11.30;1.00
10566;DHT22;5331;48.148;16.326;2024-03-02T16:12:31;11.30;1.00
10566;DHT22;5331;48.148;16.326;2024-03-02T16:14:58;11.20;1.00
10566;DHT22;5331;48.148;16.326;2024-03-02T16:30:32;11.20;1.00
10566;DHT22;5331;48.148;16.326;2024-03-02T16:32:59;11.00;1.00
10566;DHT22;5331;48.148;16.326;2024-03-02T16:35:25;11.00;1.00
10566;DHT22;5331;48.148;16.326;2024-03-02T16:37:51;10.90;1.00
10566;DHT22;5331;48.148;16.326;2024-03-02T16:40:17;10.90;1.00
10566;DHT22;5331;48.148;16.326;2024-03-02T16:42:44;10.80;1.00
10566;DHT22;5331;48.148;16.326;2024-03-02T16:45:10;10.80;1.00
10566;DHT22;5331;48.148;16.326;2024-03-02T17:05:30;10.60;1.00
10566;DHT22;5331;48.148;16.326;2024-03-02T17:07:56;10.50;1.00
10566;DHT22;5331;48.148;16.326;2024-03-02T17:10:23;10.50;1.00
10566;DHT22;5331;48.148;16.326;2024-03-02T17:12:50;10.40;1.00
10566;DHT22;5331;48.148;16.326;2024-03-02T17:15:16;10.40;1.00
10566;DHT22;5331;48.148;16.326;2024-03-02T17:17:42;10.30;1.00
10566;DHT22;5331;48.148;16.326;2024-03-02T17:20:09;10.20;1.00
10566;DHT22;5331;48.148;16.326;2024-03-02T17:40:06;10.50;1.00
10566;DHT22;5331;48.148;16.326;2024-03-02T17:42:33;10.30;1.00
10566;DHT22;5331;48.148;16.326;2024-03-02T17:44:59;10.30;1.00
10566;DHT22;5331;48.148;16.326;2024-03-02T17:47:25;10.20;1.00
10566;DHT22;5331;48.148;16.326;2024-03-02T17:49:51;10.20;1.00
10566;DHT22;5331;48.148;16.326;2024-03-02T17:52:18;10.00;1.00
10566;DHT22;5331;48.148;16.326;2024-03-02T17:54:44;10.00;1.00
10566;DHT22;5331;48.148;16.326;2024-03-02T17:57:11;10.00;1.00
10566;DHT22;5331;48.148;16.326;2024-03-02T18:15:04;10.10;1.00
10566;DHT22;5331;48.148;16.326;2024-03-02T18:17:30;10.10;1.00
10566;DHT22;5331;48.148;16.326;2024-03-02T18:19:57;10.00;1.00
10566;DHT22;5331;48.148;16.326;2024-03-02T18:22:23;9.90;1.00
10566;DHT22;5331;48.148;16.326;2024-03-02T18:24:49;9.90;1.00
10566;DHT22;5331;48.148;16.326;2024-03-02T18:27:15;9.90;1.00
10566;DHT22;5331;48.148;16.326;2024-03-02T18:29:43;9.90;1.00
10566;DHT22;5331;48.148;16.326;2024-03-02T18:49:29;10.00;1.00
10566;DHT22;5331;48.148;16.326;2024-03-02T18:51:55;9.90;1.00
10566;DHT22;5331;48.148;16.326;2024-03-02T18:54:22;9.70;1.00
10566;DHT22;5331;48.148;16.326;2024-03-02T18:56:48;9.70;1.00
10566;DHT22;5331;48.148;16.326;2024-03-02T18:59:14;9.70;1.00
10566;DHT22;5331;48.148;16.326;2024-03-02T19:01:40;9.70;1.00
10566;DHT22;5331;48.148;16.326;2024-03-02T19:04:07;9.70;1.00
10566;DHT22;5331;48.148;16.326;2024-03-02T19:20:07;9.70;1.00
10566;DHT22;5331;48.148;16.326;2024-03-02T19:22:36;9.70;1.00
10566;DHT22;5331;48.148;16.326;2024-03-02T19:25:03;9.60;1.00
10566;DHT22;5331;48.148;16.326;2024-03-02T19:27:29;9.50;1.00
10566;DHT22;5331;48.148;16.326;2024-03-02T19:29:55;9.50;1.00
10566;DHT22;5331;48.148;16.326;2024-03-02T19:32:22;9.50;1.00
10566;DHT22;5331;48.148;16.326;2024-03-02T19:34:49;9.50;1.00
10566;DHT22;5331;48.148;16.326;2024-03-02T19:53:05;9.60;1.00
10566;DHT22;5331;48.148;16.326;2024-03-02T19:55:33;9.40;1.00
10566;DHT22;5331;48.148;16.326;2024-03-02T19:57:59;9.30;1.00
10566;DHT22;5331;48.148;16.326;2024-03-02T20:00:26;9.20;1.00
10566;DHT22;5331;48.148;16.326;2024-03-02T20:02:52;9.20;1.00
10566;DHT22;5331;48.148;16.326;2024-03-02T20:05:19;9.10;1.00
10566;DHT22;5331;48.148;16.326;2024-03-02T20:07:45;9.10;1.00
10566;DHT22;5331;48.148;16.326;2024-03-02T20:10:12;9.10;1.00
10566;DHT22;5331;48.148;16.326;2024-03-02T20:28:08;8.80;1.00
10566;DHT22;5331;48.148;16.326;2024-03-02T20:30:34;8.60;1.00
10566;DHT22;5331;48.148;16.326;2024-03-02T20:33:01;8.50;1.00
10566;DHT22;5331;48.148;16.326;2024-03-02T20:35:27;8.40;1.00
10566;DHT22;5331;48.148;16.326;2024-03-02T20:37:54;8.40;1.00
10566;DHT22;5331;48.148;16.326;2024-03-02T20:40:20;8.40;1.00
10566;DHT22;5331;48.148;16.326;2024-03-02T20:42:46;8.20;1.00
10566;DHT22;5331;48.148;16.326;2024-03-02T21:00:41;8.40;1.00
10566;DHT22;5331;48.148;16.326;2024-03-02T21:03:07;8.30;1.00
10566;DHT22;5331;48.148;16.326;2024-03-02T21:05:33;8.10;1.00
10566;DHT22;5331;48.148;16.326;2024-03-02T21:08:00;8.10;1.00
10566;DHT22;5331;48.148;16.326;2024-03-02T21:10:26;8.10;1.00
10566;DHT22;5331;48.148;16.326;2024-03-02T21:12:53;8.10;1.00
10566;DHT22;5331;48.148;16.326;2024-03-02T21:15:19;8.10;1.00
10566;DHT22;5331;48.148;16.326;2024-03-02T21:33:14;8.20;1.00
10566;DHT22;5331;48.148;16.326;2024-03-02T21:35:40;8.10;1.00
10566;DHT22;5331;48.148;16.326;2024-03-02T21:38:06;8.10;1.00
10566;DHT22;5331;48.148;16.326;2024-03-02T21:40:33;8.10;1.00
10566;DHT22;5331;48.148;16.326;2024-03-02T21:42:59;8.00;1.00
10566;DHT22;5331;48.148;16.326;2024-03-02T21:45:26;8.00;1.00
10566;DHT22;5331;48.148;16.326;2024-03-02T21:47:52;8.00;1.00
10566;DHT22;5331;48.148;16.326;2024-03-02T21:50:19;8.00;1.00
10566;DHT22;5331;48.148;16.326;2024-03-02T22:08:14;7.80;1.00
10566;DHT22;5331;48.148;16.326;2024-03-02T22:10:40;7.70;1.00
10566;DHT22;5331;48.148;16.326;2024-03-02T22:13:06;7.70;1.00
10566;DHT22;5331;48.148;16.326;2024-03-02T22:15:32;7.60;1.00
10566;DHT22;5331;48.148;16.326;2024-03-02T22:17:59;7.70;1.00
10566;DHT22;5331;48.148;16.326;2024-03-02T22:20:28;7.70;1.00
10566;DHT22;5331;48.148;16.326;2024-03-02T22:22:55;7.70;1.00
10566;DHT22;5331;48.148;16.326;2024-03-02T22:40:50;8.20;1.00
10566;DHT22;5331;48.148;16.326;2024-03-02T22:43:16;8.10;1.00
10566;DHT22;5331;48.148;16.326;2024-03-02T22:45:42;8.00;1.00
10566;DHT22;5331;48.148;16.326;2024-03-02T22:48:08;8.00;1.00
10566;DHT22;5331;48.148;16.326;2024-03-02T22:50:35;8.00;1.00
10566;DHT22;5331;48.148;16.326;2024-03-02T22:53:01;8.00;1.00
10566;DHT22;5331;48.148;16.326;2024-03-02T22:57:54;8.00;1.00
10566;DHT22;5331;48.148;16.326;2024-03-02T23:15:50;8.30;1.00
10566;DHT22;5331;48.148;16.326;2024-03-02T23:18:16;8.20;1.00
10566;DHT22;5331;48.148;16.326;2024-03-02T23:20:43;8.10;1.00
10566;DHT22;5331;48.148;16.326;2024-03-02T23:23:09;8.10;1.00
10566;DHT22;5331;48.148;16.326;2024-03-02T23:25:35;8.10;1.00
10566;DHT22;5331;48.148;16.326;2024-03-02T23:28:02;8.10;1.00
10566;DHT22;5331;48.148;16.326;2024-03-02T23:30:28;8.10;1.00
10566;DHT22;5331;48.148;16.326;2024-03-02T23:50:42;8.00;1.00
10566;DHT22;5331;48.148;16.326;2024-03-02T23:53:08;8.00;1.00
10566;DHT22;5331;48.148;16.326;2024-03-02T23:55:34;7.90;1.00
10566;DHT22;5331;48.148;16.326;2024-03-02T23:58:00;7.90;1.00
